Time;durP1;ratioP1;P1;durP2;ratioP2;P2;SDS_P1;SDS_P2;PMS_P1;PMS_P2;Temp;Humidity;BMP_temperature;BMP_pressure;BME280_temperature;BME280_humidity;BME280_pressure;Samples;Min_cycle;Max_cycle;Signal;HPM_P1;HPM_P2
2022/06/26 00:01:32;;;;;;;14.85;5.00;;;19.60;99.90;;;;;;5094252;28;20188;-62
2022/06/26 00:03:58;;;;;;;10.27;5.60;;;19.60;99.90;;;;;;5072337;28;20229;-62
2022/06/26 00:06:24;;;;;;;9.30;4.63;;;19.60;99.90;;;;;;5055296;28;20239;-61
2022/06/26 00:08:50;;;;;;;10.32;5.43;;;19.60;99.90;;;;;;5053599;28;20267;-62
2022/06/26 00:11:16;;;;;;;10.70;4.80;;;19.50;99.90;;;;;;5053936;28;20202;-61
2022/06/26 00:13:42;;;;;;;11.80;5.22;;;19.50;99.90;;;;;;5053244;28;20183;-62
2022/06/26 00:16:08;;;;;;;9.07;4.43;;;19.40;99.90;;;;;;5053719;28;20194;-62
2022/06/26 00:18:33;;;;;;;10.45;5.03;;;19.40;99.90;;;;;;5072272;28;20543;-62
2022/06/26 00:20:59;;;;;;;9.60;5.22;;;19.40;99.90;;;;;;5072510;28;20185;-61
2022/06/26 00:23:25;;;;;;;9.02;4.68;;;19.40;99.90;;;;;;5073753;28;20196;-62
2022/06/26 00:25:51;;;;;;;17.13;5.55;;;19.50;99.90;;;;;;5072129;28;20185;-62
2022/06/26 00:28:16;;;;;;;9.55;4.78;;;19.50;99.90;;;;;;5073642;28;20189;-61
2022/06/26 00:30:42;;;;;;;9.55;5.00;;;19.50;99.90;;;;;;5073123;28;20241;-61
2022/06/26 00:33:08;;;;;;;12.77;5.18;;;19.50;99.90;;;;;;5073909;28;20620;-62
2022/06/26 00:35:34;;;;;;;10.32;5.55;;;19.50;99.90;;;;;;5071958;28;20186;-63
2022/06/26 00:37:59;;;;;;;8.82;5.53;;;19.40;99.90;;;;;;5073546;28;20186;-62
2022/06/26 00:40:25;;;;;;;18.60;5.78;;;19.40;99.90;;;;;;5073462;28;20192;-62
2022/06/26 00:42:51;;;;;;;9.40;5.55;;;19.30;99.90;;;;;;5073134;28;20613;-62
2022/06/26 00:45:17;;;;;;;10.30;5.45;;;19.40;99.90;;;;;;5073354;28;20182;-62
2022/06/26 00:47:42;;;;;;;11.02;4.82;;;19.40;99.90;;;;;;5073169;28;20182;-62
2022/06/26 00:50:09;;;;;;;9.13;4.95;;;19.40;99.90;;;;;;5073463;28;20293;-62
2022/06/26 00:52:36;;;;;;;9.57;4.85;;;19.40;99.90;;;;;;5072835;28;20267;-63
2022/06/26 00:55:03;;;;;;;11.00;5.38;;;19.50;99.90;;;;;;5072885;28;20320;-62
2022/06/26 00:57:29;;;;;;;10.05;5.22;;;19.40;99.90;;;;;;5073651;28;20178;-62
2022/06/26 00:59:56;;;;;;;8.30;5.82;;;19.40;99.90;;;;;;5071704;28;20186;-62
2022/06/26 01:02:22;;;;;;;8.45;4.80;;;19.40;99.90;;;;;;5072993;28;20185;-62
2022/06/26 01:04:48;;;;;;;11.67;5.20;;;19.40;99.90;;;;;;5086185;28;20225;-62
2022/06/26 01:07:14;;;;;;;8.32;5.30;;;19.30;99.90;;;;;;5072776;28;20181;-62
2022/06/26 01:09:41;;;;;;;7.60;4.53;;;19.30;99.90;;;;;;5072290;28;20177;-62
2022/06/26 01:12:07;;;;;;;10.52;5.32;;;19.30;99.90;;;;;;5054967;28;20581;-62
2022/06/26 01:14:33;;;;;;;8.52;5.28;;;19.30;99.90;;;;;;5072411;28;20182;-62
2022/06/26 01:17:01;;;;;;;15.77;5.55;;;19.30;99.90;;;;;;5078331;28;20187;-62
2022/06/26 01:19:28;;;;;;;14.55;5.28;;;19.30;99.90;;;;;;5074617;28;20599;-62
2022/06/26 01:21:54;;;;;;;8.85;4.97;;;19.30;99.90;;;;;;5092576;28;20269;-62
2022/06/26 01:24:20;;;;;;;14.63;5.10;;;19.30;99.90;;;;;;5093125;28;20260;-62
2022/06/26 01:26:45;;;;;;;8.55;5.00;;;19.30;99.90;;;;;;5074905;28;20577;-62
2022/06/26 01:29:11;;;;;;;12.73;5.38;;;19.30;99.90;;;;;;5092792;28;20185;-63
2022/06/26 01:31:37;;;;;;;7.38;4.82;;;19.20;99.90;;;;;;5074320;28;20215;-63
2022/06/26 01:34:08;;;;;;;8.05;4.85;;;19.20;99.90;;;;;;5092457;28;20278;-62
2022/06/26 01:36:35;;;;;;;9.52;5.13;;;19.20;99.90;;;;;;5092383;28;20192;-62
2022/06/26 01:39:02;;;;;;;7.65;4.68;;;19.20;99.90;;;;;;5092472;28;20181;-62
2022/06/26 01:41:28;;;;;;;7.87;5.00;;;19.20;99.90;;;;;;5092674;28;20637;-62
2022/06/26 01:43:53;;;;;;;11.57;4.80;;;19.10;99.90;;;;;;5091946;28;20238;-62
2022/06/26 01:46:20;;;;;;;10.68;4.93;;;19.10;99.90;;;;;;5092430;28;20177;-62
2022/06/26 01:48:46;;;;;;;9.73;4.43;;;19.10;99.90;;;;;;5092105;28;20586;-62
2022/06/26 01:51:13;;;;;;;9.50;4.70;;;19.10;99.90;;;;;;5092040;28;20257;-62
2022/06/26 01:53:39;;;;;;;9.55;5.68;;;19.10;99.90;;;;;;5092078;28;20272;-62
2022/06/26 01:56:06;;;;;;;9.23;4.95;;;19.10;99.90;;;;;;5092287;28;20256;-63
2022/06/26 01:58:33;;;;;;;8.60;5.07;;;19.10;99.90;;;;;;5092425;28;20176;-62
2022/06/26 02:00:59;;;;;;;10.95;5.72;;;19.10;99.90;;;;;;5091932;28;20381;-62
2022/06/26 02:03:26;;;;;;;14.60;5.53;;;19.00;99.90;;;;;;5092075;28;20330;-62
2022/06/26 02:05:52;;;;;;;10.23;4.90;;;19.00;99.90;;;;;;5077152;28;20205;-62
2022/06/26 02:08:17;;;;;;;13.70;5.17;;;19.00;99.90;;;;;;5072145;28;20191;-62
2022/06/26 02:13:42;;;;;;;7.35;4.80;;;18.90;99.90;;;;;;5072097;28;20535;-62
2022/06/26 02:16:07;;;;;;;10.30;5.60;;;18.90;99.90;;;;;;5071529;28;20579;-62
2022/06/26 02:18:33;;;;;;;10.13;5.13;;;18.90;99.90;;;;;;5090544;28;20177;-62
2022/06/26 02:21:00;;;;;;;19.75;5.68;;;18.90;99.90;;;;;;5091873;28;20185;-62
2022/06/26 02:23:26;;;;;;;8.00;5.18;;;18.90;99.90;;;;;;5091872;28;20185;-62
2022/06/26 02:25:52;;;;;;;8.07;5.18;;;18.80;99.90;;;;;;5091916;28;20629;-61
2022/06/26 02:28:18;;;;;;;9.15;5.15;;;18.70;99.90;;;;;;5073574;28;20189;-61
2022/06/26 02:30:44;;;;;;;9.45;4.90;;;18.80;99.90;;;;;;5091149;28;20748;-62
2022/06/26 02:33:10;;;;;;;12.90;4.93;;;18.80;99.90;;;;;;5091790;28;20228;-61
2022/06/26 02:35:36;;;;;;;9.35;5.15;;;18.70;99.90;;;;;;5091871;28;20232;-62
2022/06/26 02:38:02;;;;;;;10.45;5.38;;;18.70;99.90;;;;;;5091811;28;20173;-61
2022/06/26 02:40:29;;;;;;;13.77;5.75;;;18.70;99.90;;;;;;5091692;28;20329;-61
2022/06/26 02:42:55;;;;;;;12.37;6.53;;;18.70;99.90;;;;;;5091559;28;20207;-62
2022/06/26 02:45:22;;;;;;;12.90;5.63;;;18.70;99.90;;;;;;5091687;28;20659;-62
2022/06/26 02:47:48;;;;;;;16.77;6.20;;;18.70;99.90;;;;;;5091659;28;20679;-62
2022/06/26 02:50:15;;;;;;;12.47;6.83;;;18.60;99.90;;;;;;5091709;28;20196;-62
2022/06/26 02:52:41;;;;;;;13.07;6.33;;;18.60;99.90;;;;;;5091807;28;20188;-64
2022/06/26 02:55:08;;;;;;;14.47;8.20;;;18.60;99.90;;;;;;5091600;28;20181;-62
2022/06/26 02:57:34;;;;;;;15.77;6.53;;;18.50;99.90;;;;;;5091502;28;20181;-62
2022/06/26 03:00:00;;;;;;;14.63;6.10;;;18.50;99.90;;;;;;5091228;28;20621;-62
2022/06/26 03:02:25;;;;;;;15.60;6.90;;;18.50;99.90;;;;;;5091315;28;20226;-61
2022/06/26 03:04:54;;;;;;;15.93;5.97;;;18.40;99.90;;;;;;5084936;28;20580;-62
2022/06/26 03:07:20;;;;;;;10.93;6.30;;;18.50;99.90;;;;;;5071192;28;20311;-61
2022/06/26 03:09:47;;;;;;;11.87;6.17;;;18.50;99.90;;;;;;5070840;28;20367;-61
2022/06/26 03:12:13;;;;;;;13.03;6.17;;;18.50;99.90;;;;;;5071095;28;20214;-62
2022/06/26 03:14:39;;;;;;;14.98;5.95;;;18.60;99.90;;;;;;5070874;28;20181;-62
2022/06/26 03:17:05;;;;;;;8.47;5.47;;;18.70;99.90;;;;;;5059420;28;20648;-61
2022/06/26 03:19:30;;;;;;;13.45;6.30;;;18.70;99.90;;;;;;5091162;28;20267;-62
2022/06/26 03:21:56;;;;;;;8.33;4.77;;;18.80;99.90;;;;;;5090955;28;20181;-62
2022/06/26 03:24:22;;;;;;;8.23;5.47;;;18.90;99.90;;;;;;5093272;28;20177;-62
2022/06/26 03:26:48;;;;;;;11.00;5.07;;;19.00;99.90;;;;;;5076186;28;20738;-62
2022/06/26 03:29:14;;;;;;;13.27;6.72;;;19.30;99.90;;;;;;5095050;28;20196;-62
2022/06/26 03:31:40;;;;;;;14.98;5.50;;;19.60;99.90;;;;;;5094801;28;20567;-62
2022/06/26 03:34:06;;;;;;;12.00;5.40;;;19.60;99.90;;;;;;5094817;28;20227;-62
2022/06/26 03:36:33;;;;;;;9.13;5.32;;;19.60;99.90;;;;;;5094648;28;20177;-62
2022/06/26 03:38:59;;;;;;;16.98;6.75;;;19.60;99.90;;;;;;5094699;28;20173;-61
2022/06/26 03:41:25;;;;;;;9.77;5.93;;;19.50;99.90;;;;;;5094023;28;20173;-61
2022/06/26 03:43:51;;;;;;;14.15;6.35;;;19.50;99.90;;;;;;5094408;28;20190;-61
2022/06/26 03:46:17;;;;;;;12.60;5.87;;;19.40;99.90;;;;;;5094230;28;20623;-62
2022/06/26 03:48:43;;;;;;;10.32;5.75;;;19.20;99.90;;;;;;5094396;28;20272;-62
2022/06/26 03:51:09;;;;;;;11.82;5.60;;;19.20;99.90;;;;;;5093585;28;20619;-61
2022/06/26 03:53:35;;;;;;;12.48;6.00;;;19.20;99.90;;;;;;5093795;28;20598;-61
2022/06/26 03:56:01;;;;;;;11.75;6.35;;;19.30;99.90;;;;;;5093628;28;20253;-61
2022/06/26 03:58:27;;;;;;;11.38;5.82;;;19.30;99.90;;;;;;5094178;28;20173;-61
2022/06/26 04:00:53;;;;;;;13.43;5.45;;;19.40;99.90;;;;;;5075645;28;20235;-62
2022/06/26 04:03:20;;;;;;;15.23;6.63;;;19.50;99.90;;;;;;5093936;28;20244;-61
2022/06/26 04:05:46;;;;;;;15.30;7.10;;;19.40;99.90;;;;;;5080201;28;20272;-62
2022/06/26 04:08:12;;;;;;;9.85;6.18;;;19.50;99.90;;;;;;5073854;28;20181;-61
2022/06/26 04:10:38;;;;;;;10.57;6.18;;;19.40;99.90;;;;;;5073997;28;20220;-61
2022/06/26 04:13:06;;;;;;;12.15;6.80;;;19.60;99.90;;;;;;5073759;28;20190;-61
2022/06/26 04:15:33;;;;;;;16.63;7.00;;;19.70;99.90;;;;;;5073474;28;20580;-61
2022/06/26 04:18:00;;;;;;;11.77;6.25;;;19.70;99.90;;;;;;5087473;28;20660;-61
2022/06/26 04:20:26;;;;;;;12.60;6.57;;;19.90;99.90;;;;;;5093888;28;20322;-61
2022/06/26 04:22:58;;;;;;;13.20;6.82;;;20.00;99.90;;;;;;5093711;28;20180;-61
2022/06/26 04:25:25;;;;;;;15.95;6.85;;;20.00;99.90;;;;;;5094122;28;20555;-61
2022/06/26 04:27:51;;;;;;;11.50;5.80;;;19.90;99.90;;;;;;5093566;28;20169;-62
2022/06/26 04:30:17;;;;;;;13.82;5.93;;;19.70;99.90;;;;;;5093940;28;20227;-62
2022/06/26 04:32:43;;;;;;;14.32;6.28;;;19.80;99.90;;;;;;5093667;28;20325;-62
2022/06/26 04:35:09;;;;;;;8.48;5.95;;;19.80;99.90;;;;;;5093512;28;20651;-62
2022/06/26 04:37:36;;;;;;;9.00;6.30;;;19.80;99.90;;;;;;5093313;28;20303;-62
2022/06/26 04:40:03;;;;;;;11.05;6.00;;;19.90;99.90;;;;;;5075444;28;20214;-62
2022/06/26 04:42:29;;;;;;;8.52;6.00;;;20.00;99.90;;;;;;5093533;28;20183;-62
2022/06/26 04:44:55;;;;;;;12.60;5.97;;;20.10;99.90;;;;;;5093145;28;20299;-62
2022/06/26 04:47:20;;;;;;;10.10;5.90;;;20.20;99.90;;;;;;5093254;28;20311;-61
2022/06/26 04:49:47;;;;;;;12.15;5.85;;;20.20;99.90;;;;;;5093185;28;20179;-62
2022/06/26 04:52:13;;;;;;;8.23;4.90;;;20.50;99.90;;;;;;5093116;28;20639;-62
2022/06/26 04:54:40;;;;;;;16.00;4.50;;;20.70;99.90;;;;;;5093059;28;20234;-61
2022/06/26 04:57:06;;;;;;;5.30;4.13;;;20.80;99.90;;;;;;5074822;28;20598;-62
2022/06/26 04:59:31;;;;;;;11.80;4.72;;;21.00;99.90;;;;;;5093524;28;20199;-62
2022/06/26 05:01:57;;;;;;;8.35;4.53;;;21.10;99.90;;;;;;5092673;28;20623;-61
2022/06/26 05:04:23;;;;;;;9.65;4.75;;;21.20;99.90;;;;;;5071936;28;20232;-63
2022/06/26 05:06:48;;;;;;;6.63;4.45;;;21.20;99.90;;;;;;5072140;28;20267;-63
2022/06/26 05:09:16;;;;;;;12.00;4.72;;;21.30;99.90;;;;;;5072469;28;20267;-63
2022/06/26 05:11:42;;;;;;;11.40;5.28;;;21.50;99.90;;;;;;5072579;28;20213;-63
2022/06/26 05:14:08;;;;;;;9.63;4.85;;;21.70;99.90;;;;;;5072917;28;20550;-63
2022/06/26 05:16:34;;;;;;;6.60;4.57;;;21.80;99.90;;;;;;5074906;28;20261;-63
2022/06/26 05:19:00;;;;;;;7.50;4.43;;;22.10;99.90;;;;;;5092184;28;20269;-62
2022/06/26 05:21:26;;;;;;;14.70;5.30;;;22.10;99.90;;;;;;5092206;28;20181;-64
2022/06/26 05:23:52;;;;;;;8.88;5.22;;;22.60;99.90;;;;;;5092334;28;20203;-63
2022/06/26 05:26:18;;;;;;;10.07;5.22;;;22.90;99.90;;;;;;5092443;28;20625;-63
2022/06/26 05:28:43;;;;;;;7.10;4.68;;;23.00;99.90;;;;;;5091721;28;20173;-62
2022/06/26 05:31:09;;;;;;;9.43;4.78;;;23.20;99.90;;;;;;5091973;28;20208;-63
2022/06/26 05:33:36;;;;;;;9.45;5.40;;;23.30;99.90;;;;;;5091883;28;20204;-62
2022/06/26 05:36:03;;;;;;;7.88;5.15;;;23.20;99.90;;;;;;5091536;28;20193;-63
2022/06/26 05:38:28;;;;;;;8.70;4.90;;;23.30;99.90;;;;;;5091785;28;20184;-63
2022/06/26 05:40:54;;;;;;;7.80;5.15;;;23.20;99.90;;;;;;5073863;28;20193;-63
2022/06/26 05:43:20;;;;;;;7.20;4.63;;;23.30;99.90;;;;;;5091976;28;20242;-62
2022/06/26 05:45:46;;;;;;;6.53;4.90;;;23.30;99.90;;;;;;5091102;28;20187;-62
2022/06/26 05:48:11;;;;;;;10.75;5.35;;;23.20;99.90;;;;;;5056375;28;20492;-62
2022/06/26 05:50:37;;;;;;;8.50;4.68;;;22.70;99.90;;;;;;5091468;28;20223;-62
2022/06/26 05:53:03;;;;;;;8.65;5.18;;;22.90;99.90;;;;;;5091694;28;20224;-62
2022/06/26 05:55:29;;;;;;;9.38;5.20;;;23.00;99.90;;;;;;5091722;28;20177;-62
2022/06/26 05:57:54;;;;;;;12.50;5.65;;;23.10;99.90;;;;;;5091462;28;20188;-62
2022/06/26 06:00:20;;;;;;;11.25;5.03;;;23.30;99.90;;;;;;5091540;28;20577;-62
2022/06/26 06:02:46;;;;;;;8.02;5.22;;;23.40;99.90;;;;;;5091644;28;20181;-62
2022/06/26 06:05:12;;;;;;;7.53;4.75;;;23.90;99.90;;;;;;5082319;28;20182;-62
2022/06/26 06:07:38;;;;;;;10.52;4.95;;;24.10;99.90;;;;;;5071716;28;20212;-63
2022/06/26 06:10:06;;;;;;;6.82;4.72;;;23.90;99.90;;;;;;5070995;28;20521;-62
2022/06/26 06:12:32;;;;;;;9.18;4.90;;;23.70;99.90;;;;;;5053158;28;20201;-62
2022/06/26 06:14:58;;;;;;;6.03;4.82;;;23.90;99.90;;;;;;5071542;28;20371;-62
2022/06/26 06:17:35;;;;;;;12.65;5.50;;;23.90;99.90;;;;;;5062484;28;20462;-62
2022/06/26 06:20:03;;;;;;;14.02;5.45;;;24.00;99.90;;;;;;5091204;28;20268;-62
2022/06/26 06:22:29;;;;;;;9.35;5.50;;;24.20;99.90;;;;;;5091476;28;20196;-63
2022/06/26 06:24:55;;;;;;;9.93;5.07;;;24.20;99.90;;;;;;5091482;28;20199;-62
2022/06/26 06:27:21;;;;;;;14.57;5.30;;;24.50;99.90;;;;;;5056516;28;20276;-62
2022/06/26 06:29:47;;;;;;;7.65;4.88;;;24.40;99.90;;;;;;5091196;28;20299;-62
2022/06/26 06:32:12;;;;;;;9.10;5.13;;;24.50;99.90;;;;;;5091154;28;20219;-62
2022/06/26 06:34:38;;;;;;;16.10;6.07;;;24.70;99.50;;;;;;5091427;28;20192;-62
2022/06/26 06:37:04;;;;;;;12.38;5.30;;;24.60;99.30;;;;;;5091251;28;20325;-63
2022/06/26 06:39:29;;;;;;;11.88;5.22;;;25.00;99.70;;;;;;5091455;28;20177;-62
2022/06/26 06:41:55;;;;;;;7.13;4.95;;;25.20;99.50;;;;;;5091063;28;20272;-64
2022/06/26 06:44:21;;;;;;;15.07;5.45;;;25.40;98.90;;;;;;5073056;28;20181;-62
2022/06/26 06:46:47;;;;;;;24.98;7.03;;;25.10;99.00;;;;;;5090900;28;20584;-64
2022/06/26 06:49:13;;;;;;;9.52;4.97;;;25.00;99.70;;;;;;5090935;28;20650;-62
2022/06/26 06:51:39;;;;;;;10.02;5.60;;;24.90;98.90;;;;;;5091072;28;20223;-62
2022/06/26 06:54:05;;;;;;;9.93;5.47;;;25.00;99.30;;;;;;5090996;28;20276;-61
2022/06/26 06:56:30;;;;;;;8.85;5.53;;;25.00;99.00;;;;;;5091081;28;20227;-63
2022/06/26 06:58:56;;;;;;;10.27;5.88;;;25.00;99.40;;;;;;5092306;28;20259;-63
2022/06/26 07:01:22;;;;;;;11.57;5.80;;;25.10;99.40;;;;;;5094766;28;20234;-63
2022/06/26 07:03:48;;;;;;;9.15;5.82;;;25.30;99.30;;;;;;5095134;28;20239;-63
2022/06/26 07:06:13;;;;;;;11.77;5.85;;;25.70;99.20;;;;;;5077021;28;20277;-62
2022/06/26 07:08:39;;;;;;;8.45;5.22;;;25.40;98.60;;;;;;5074397;28;20256;-61
2022/06/26 07:11:05;;;;;;;7.03;5.40;;;25.30;99.10;;;;;;5056304;28;20214;-62
2022/06/26 07:13:31;;;;;;;9.75;5.50;;;25.40;99.10;;;;;;5074395;28;20541;-63
2022/06/26 07:15:56;;;;;;;10.23;5.13;;;25.00;99.50;;;;;;5074162;28;20680;-64
2022/06/26 07:18:24;;;;;;;13.52;5.93;;;24.90;99.90;;;;;;5091122;28;20227;-62
2022/06/26 07:20:50;;;;;;;12.27;5.43;;;25.10;99.50;;;;;;5094271;28;20185;-62
2022/06/26 07:23:16;;;;;;;10.63;5.57;;;25.20;99.60;;;;;;5093821;28;20191;-63
2022/06/26 07:25:42;;;;;;;8.13;5.07;;;25.10;99.70;;;;;;5094547;28;20177;-62
2022/06/26 07:28:08;;;;;;;11.55;6.20;;;24.90;99.70;;;;;;5094250;28;20270;-62
2022/06/26 07:30:34;;;;;;;10.98;6.63;;;25.10;98.90;;;;;;5075962;28;20213;-64
2022/06/26 07:35:56;;;;;;;10.05;5.72;;;25.40;98.80;;;;;;5056228;28;20247;-62
2022/06/26 07:38:21;;;;;;;14.15;6.05;;;25.30;98.60;;;;;;5076264;28;20177;-62
2022/06/26 07:40:47;;;;;;;15.45;5.90;;;25.30;98.10;;;;;;5094359;28;20617;-63
2022/06/26 07:43:13;;;;;;;11.52;5.60;;;24.90;98.70;;;;;;5094074;28;20191;-62
2022/06/26 07:45:39;;;;;;;9.25;5.50;;;24.60;98.80;;;;;;5076429;28;20187;-62
2022/06/26 07:48:05;;;;;;;16.88;5.47;;;24.60;98.70;;;;;;5076202;28;20613;-62
2022/06/26 07:50:30;;;;;;;14.75;5.38;;;24.70;98.60;;;;;;5076188;28;20197;-62
2022/06/26 07:52:56;;;;;;;11.77;5.28;;;25.00;98.40;;;;;;5094217;28;20184;-63
2022/06/26 07:55:22;;;;;;;13.05;5.60;;;25.40;97.70;;;;;;5093630;28;20513;-63
2022/06/26 07:57:48;;;;;;;11.20;6.07;;;25.70;97.60;;;;;;5093944;28;20181;-62
2022/06/26 08:00:13;;;;;;;12.75;5.10;;;26.00;97.40;;;;;;5093866;28;20189;-63
2022/06/26 08:02:39;;;;;;;6.70;5.07;;;25.90;97.20;;;;;;5093702;28;20177;-63
2022/06/26 08:05:06;;;;;;;12.48;5.57;;;26.00;97.50;;;;;;5085322;28;20209;-63
2022/06/26 08:07:32;;;;;;;7.70;4.63;;;25.90;97.00;;;;;;5073160;28;20206;-62
2022/06/26 08:09:58;;;;;;;12.50;4.65;;;26.00;95.80;;;;;;5072576;28;20216;-64
2022/06/26 08:12:23;;;;;;;10.90;4.97;;;26.10;96.10;;;;;;5073176;28;20193;-64
2022/06/26 08:14:50;;;;;;;5.70;4.47;;;26.20;95.50;;;;;;5073044;28;20189;-62
2022/06/26 08:17:15;;;;;;;7.68;5.03;;;26.30;95.10;;;;;;5081598;28;20198;-64
2022/06/26 08:19:42;;;;;;;9.57;4.38;;;26.40;95.10;;;;;;5094064;28;20268;-64
2022/06/26 08:22:07;;;;;;;8.15;4.68;;;26.70;94.50;;;;;;5093672;28;20181;-63
2022/06/26 08:24:34;;;;;;;8.05;4.35;;;27.00;94.20;;;;;;5093278;28;20181;-64
2022/06/26 08:27:00;;;;;;;15.18;5.35;;;27.00;94.20;;;;;;5092813;28;20196;-64
2022/06/26 08:29:27;;;;;;;14.52;5.10;;;26.70;94.50;;;;;;5093982;28;20177;-62
2022/06/26 08:31:52;;;;;;;11.52;5.65;;;26.70;94.60;;;;;;5093505;28;20227;-62
2022/06/26 08:34:19;;;;;;;11.82;4.82;;;26.70;94.80;;;;;;5093117;28;20637;-63
2022/06/26 08:36:45;;;;;;;7.13;4.60;;;26.70;94.40;;;;;;5093362;28;20185;-63
2022/06/26 08:39:11;;;;;;;12.13;5.60;;;27.00;93.70;;;;;;5092488;28;20189;-62
2022/06/26 08:41:42;;;;;;;9.10;4.60;;;27.20;93.30;;;;;;5093174;28;20169;-63
2022/06/26 08:44:09;;;;;;;7.93;4.88;;;27.30;92.10;;;;;;5092553;28;20617;-63
2022/06/26 08:46:38;;;;;;;9.07;5.15;;;27.70;92.30;;;;;;5092805;28;20184;-61
2022/06/26 08:49:19;;;;;;;18.90;6.35;;;27.40;92.40;;;;;;5093098;28;20181;-62
2022/06/26 08:51:46;;;;;;;15.60;5.38;;;27.40;92.80;;;;;;5092967;28;20216;-63
2022/06/26 08:54:14;;;;;;;13.82;5.85;;;27.30;93.00;;;;;;5092442;28;20196;-63
2022/06/26 08:56:42;;;;;;;12.55;4.97;;;27.10;93.40;;;;;;5092993;28;20182;-62
2022/06/26 08:59:13;;;;;;;9.75;5.25;;;27.10;92.40;;;;;;5093032;28;20177;-62
2022/06/26 09:01:40;;;;;;;9.73;5.18;;;27.30;91.50;;;;;;5092801;28;20181;-62
2022/06/26 09:04:06;;;;;;;14.73;5.97;;;27.40;90.90;;;;;;5091998;28;20320;-62
2022/06/26 09:06:33;;;;;;;11.20;5.00;;;27.70;90.60;;;;;;5071975;28;20223;-62
2022/06/26 09:08:59;;;;;;;7.47;4.35;;;27.70;90.00;;;;;;5072357;28;20199;-63
2022/06/26 09:11:25;;;;;;;9.38;4.55;;;27.90;88.10;;;;;;5071509;28;20572;-64
2022/06/26 09:13:53;;;;;;;9.35;4.50;;;28.20;88.10;;;;;;5072130;28;20185;-62
2022/06/26 09:16:30;;;;;;;6.28;4.30;;;28.30;87.00;;;;;;5072064;28;20262;-61
2022/06/26 09:19:06;;;;;;;10.88;4.50;;;28.50;85.20;;;;;;5092385;28;20185;-64
2022/06/26 09:21:31;;;;;;;8.25;3.78;;;28.70;83.00;;;;;;5091808;28;20294;-61
2022/06/26 09:23:57;;;;;;;7.82;4.00;;;28.80;80.70;;;;;;5092201;28;20291;-63
2022/06/26 09:26:23;;;;;;;6.30;3.92;;;29.10;81.60;;;;;;5092410;28;20173;-62
2022/06/26 09:28:49;;;;;;;6.45;3.83;;;29.30;80.30;;;;;;5091736;28;20179;-63
2022/06/26 09:31:20;;;;;;;11.00;3.47;;;29.50;79.00;;;;;;5091236;28;20204;-63
2022/06/26 09:33:45;;;;;;;5.63;3.58;;;29.40;78.60;;;;;;5092406;28;20199;-65
2022/06/26 09:36:16;;;;;;;11.25;3.90;;;29.40;78.90;;;;;;5091717;28;20173;-62
2022/06/26 09:38:49;;;;;;;8.93;4.50;;;29.30;80.10;;;;;;5092246;28;20173;-64
2022/06/26 09:41:15;;;;;;;10.65;3.92;;;29.10;80.00;;;;;;5091402;28;20191;-63
2022/06/26 09:43:44;;;;;;;5.18;2.95;;;28.80;79.50;;;;;;5091567;28;20265;-64
2022/06/26 09:46:13;;;;;;;5.85;3.35;;;28.70;80.10;;;;;;5091052;28;20188;-63
2022/06/26 09:48:41;;;;;;;8.75;4.00;;;28.40;80.90;;;;;;5091983;28;20234;-63
2022/06/26 09:51:13;;;;;;;9.93;3.70;;;28.40;80.70;;;;;;5091223;28;20238;-63
2022/06/26 09:53:39;;;;;;;8.25;3.50;;;28.30;80.70;;;;;;5091985;28;20177;-64
2022/06/26 09:56:05;;;;;;;10.00;4.22;;;28.00;81.30;;;;;;5090943;28;20263;-64
2022/06/26 09:58:32;;;;;;;9.77;3.67;;;27.90;81.10;;;;;;5091378;28;20220;-63
2022/06/26 10:06:30;;;;;;;10.48;3.63;;;27.90;81.70;;;;;;5071705;28;20272;-63
2022/06/26 10:08:59;;;;;;;6.72;3.08;;;28.30;80.80;;;;;;5071043;28;20576;-63
2022/06/26 10:11:27;;;;;;;8.63;3.22;;;28.40;80.50;;;;;;5070565;28;20598;-65
2022/06/26 10:14:04;;;;;;;8.43;2.90;;;28.50;79.10;;;;;;5071346;28;20204;-63
2022/06/26 10:16:48;;;;;;;8.57;3.13;;;28.50;77.70;;;;;;5073017;28;20165;-63
2022/06/26 10:19:23;;;;;;;7.30;3.15;;;28.70;75.80;;;;;;5091317;28;20208;-63
2022/06/26 10:21:50;;;;;;;6.47;3.20;;;28.90;75.20;;;;;;5091379;28;20184;-63
2022/06/26 10:24:16;;;;;;;6.07;2.50;;;29.10;75.70;;;;;;5072515;28;20230;-63
2022/06/26 10:26:53;;;;;;;11.35;2.53;;;29.30;74.80;;;;;;5091059;28;20234;-63
2022/06/26 10:29:19;;;;;;;9.02;2.83;;;29.40;73.60;;;;;;5091000;28;20176;-63
2022/06/26 10:31:49;;;;;;;12.80;3.03;;;29.60;72.90;;;;;;5072821;28;20221;-63
2022/06/26 10:34:20;;;;;;;6.15;3.08;;;29.70;72.10;;;;;;5078907;28;20574;-63
2022/06/26 10:37:14;;;;;;;7.82;3.45;;;29.50;70.90;;;;;;5097980;28;20197;-63
2022/06/26 10:39:43;;;;;;;9.48;3.25;;;29.00;69.70;;;;;;5098055;28;20177;-63
2022/06/26 10:45:21;;;;;;;8.77;3.60;;;28.40;72.80;;;;;;5097529;28;20565;-63
2022/06/26 10:47:53;;;;;;;5.57;2.95;;;28.40;74.30;;;;;;5098145;28;20208;-62
2022/06/26 10:50:25;;;;;;;9.77;3.13;;;28.50;73.30;;;;;;5097649;28;20212;-62
2022/06/26 10:52:51;;;;;;;7.63;3.50;;;28.70;73.30;;;;;;5097791;28;20644;-62
2022/06/26 10:55:17;;;;;;;5.28;2.92;;;29.00;73.30;;;;;;5097648;28;20185;-64
2022/06/26 10:57:43;;;;;;;8.93;2.65;;;29.50;71.90;;;;;;5098099;28;20204;-62
2022/06/26 11:00:12;;;;;;;8.10;2.67;;;29.30;71.20;;;;;;5097396;28;20191;-61
2022/06/26 11:02:44;;;;;;;8.30;3.05;;;29.60;72.70;;;;;;5097148;28;20608;-63
2022/06/26 11:05:11;;;;;;;8.13;3.05;;;29.50;70.90;;;;;;5088776;28;20257;-64
2022/06/26 11:07:55;;;;;;;10.88;3.53;;;29.30;71.10;;;;;;5077762;28;20613;-63
2022/06/26 11:10:23;;;;;;;6.40;3.10;;;29.20;69.90;;;;;;5077733;28;20201;-63
2022/06/26 11:12:51;;;;;;;14.13;3.40;;;29.40;69.60;;;;;;5077425;28;20185;-63
2022/06/26 11:15:21;;;;;;;11.10;2.85;;;29.20;68.10;;;;;;5077525;28;20178;-64
2022/06/26 11:18:05;;;;;;;2.75;1.58;;;29.40;67.50;;;;;;5089630;28;20215;-64
2022/06/26 11:20:47;;;;;;;5.05;1.25;;;29.00;61.50;;;;;;5079209;28;20187;-62
2022/06/26 11:23:14;;;;;;;3.83;1.10;;;29.30;61.70;;;;;;5097430;28;20173;-64
2022/06/26 11:25:41;;;;;;;5.95;1.38;;;29.80;61.20;;;;;;5097309;28;20276;-63
2022/06/26 11:28:09;;;;;;;5.10;2.22;;;30.30;58.90;;;;;;5097133;28;20640;-64
2022/06/26 11:30:41;;;;;;;2.63;1.35;;;31.20;58.90;;;;;;5079075;28;20259;-63
2022/06/26 11:33:09;;;;;;;4.28;1.38;;;31.10;58.30;;;;;;5097183;28;20273;-63
2022/06/26 11:35:35;;;;;;;6.20;1.75;;;30.90;58.10;;;;;;5096787;28;20181;-63
2022/06/26 11:38:15;;;;;;;7.95;2.53;;;30.40;59.70;;;;;;5096715;28;20203;-63
2022/06/26 11:40:45;;;;;;;3.70;1.00;;;30.30;60.40;;;;;;5078592;28;20191;-63
2022/06/26 11:43:13;;;;;;;5.00;1.33;;;30.30;62.80;;;;;;5096523;28;20187;-64
2022/06/26 11:45:40;;;;;;;3.50;2.00;;;30.30;61.50;;;;;;5092829;28;20203;-64
2022/06/26 11:48:16;;;;;;;4.72;1.75;;;29.90;62.40;;;;;;5093094;28;20185;-65
2022/06/26 11:50:49;;;;;;;0.30;0.30;;;29.60;62.90;;;;;;5093515;28;20234;-64
2022/06/26 11:53:28;;;;;;;0.22;0.22;;;29.20;64.00;;;;;;5093177;28;20212;-64
2022/06/26 11:55:57;;;;;;;0.43;0.43;;;29.50;63.30;;;;;;5093360;28;20177;-64
2022/06/26 11:58:25;;;;;;;0.30;0.30;;;30.60;61.20;;;;;;5092956;28;20206;-65
2022/06/26 12:01:05;;;;;;;7.60;0.93;;;31.20;59.80;;;;;;5093235;28;20189;-65
2022/06/26 12:03:31;;;;;;;0.35;0.20;;;32.00;57.60;;;;;;5092393;28;20311;-64
2022/06/26 12:05:57;;;;;;;0.20;0.20;;;32.40;56.60;;;;;;5077803;28;20740;-69
2022/06/26 12:08:22;;;;;;;0.03;0.03;;;31.80;56.30;;;;;;5052124;28;20255;-61
2022/06/26 12:10:53;;;;;;;1.30;0.43;;;32.70;57.30;;;;;;5072538;28;20629;-68
2022/06/26 12:13:33;;;;;;;0.20;0.20;;;34.00;54.20;;;;;;5071989;28;20637;-69
2022/06/26 12:16:06;;;;;;;0.15;0.15;;;35.30;52.20;;;;;;5072127;28;20184;-73
2022/06/26 12:18:36;;;;;;;0.38;0.30;;;35.70;50.70;;;;;;5071471;28;20180;-68
2022/06/26 12:21:02;;;;;;;0.47;0.35;;;34.90;50.70;;;;;;5074271;28;20201;-69
2022/06/26 12:23:34;;;;;;;0.25;0.25;;;33.90;51.80;;;;;;5088751;28;20502;-68
2022/06/26 12:26:05;;;;;;;0.10;0.10;;;32.40;53.80;;;;;;5091366;28;20543;-63
2022/06/26 12:28:31;;;;;;;0.28;0.15;;;31.50;56.20;;;;;;5072908;28;20532;-62
2022/06/26 12:30:59;;;;;;;0.00;0.00;;;30.90;57.30;;;;;;5091017;28;20251;-62
2022/06/26 12:33:25;;;;;;;0.45;0.43;;;30.90;57.20;;;;;;5091254;28;20552;-62
2022/06/26 12:35:52;;;;;;;0.52;0.52;;;30.20;58.90;;;;;;5090958;28;20232;-62
2022/06/26 12:38:25;;;;;;;0.00;0.00;;;29.30;60.20;;;;;;5090455;28;20270;-64
2022/06/26 12:40:51;;;;;;;0.57;0.52;;;28.60;62.10;;;;;;5057060;28;20188;-62
2022/06/26 12:43:18;;;;;;;0.52;0.52;;;28.00;65.40;;;;;;5091084;28;20542;-62
2022/06/26 12:45:44;;;;;;;0.75;0.75;;;27.50;69.30;;;;;;5073828;28;20193;-62
2022/06/26 12:48:10;;;;;;;0.00;0.00;;;27.00;72.10;;;;;;5092278;28;20180;-68
2022/06/26 12:50:36;;;;;;;0.32;0.20;;;26.40;73.80;;;;;;5092753;28;20302;-69
2022/06/26 12:53:02;;;;;;;3.83;1.90;;;26.20;76.10;;;;;;5074325;28;20264;-67
2022/06/26 12:55:28;;;;;;;1.75;1.27;;;25.90;79.30;;;;;;5092072;28;20760;-69
2022/06/26 12:57:53;;;;;;;3.63;1.45;;;25.50;80.70;;;;;;5091945;28;20663;-69